Weather History for KERV - February, 2014

Change the Weather History Date:

Saturday, February 22, 2014

  Actual Average (KHDO) Record (KHDO)
Temperature  
Mean Temperature 58 °F -  
Max Temperature 72 °F 66 °F 84 °F (2008)
Min Temperature 45 °F 43 °F 27 °F (2009)
Degree Days  
Heating Degree Days 6    
Growing Degree Days 8 (Base 50)    
Moisture  
Dew Point 48 °F    
Average Humidity 69    
Maximum Humidity 86    
Minimum Humidity 35    
Precipitation  
Precipitation 0.00 in - - ()
Sea Level Pressure  
Sea Level Pressure 29.96 in    
Wind  
Wind Speed 8 mph (SSE)    
Max Wind Speed 16 mph    
Max Gust Speed 22 mph    
Visibility 10 miles    
Events      
Averages and records for this station are not official NWS values.
T = Trace of Precipitation, MM = Missing Value Source: NWS Daily Summary

Daily Weather History Graph

Daily Weather History Graph

Search for Another Location

Airport or City:

Trip Planner

Search our weather history database for the weather conditions in past years. The results will help you decide how hot, cold, wet, or windy it might be!

Date:

Astronomy

Feb. 22, 2014 Rise Set
Actual Time 7:09 AM CST 6:30 PM CST
Civil Twilight 6:45 AM CST 6:54 PM CST
Nautical Twilight 6:17 AM CST 7:22 PM CST
Astronomical Twilight 5:49 AM CST 7:50 PM CST
Moon 12:56 AM CST (2/22) 11:53 AM CST (2/22)
Length of Visible Light 12h 09m
Length of Day
11h 21m
Waning Gibbous, 50% of the Moon is Illuminated
Feb 22
Waning Gibbous
Mar 1
New
Mar 8
First Quarter
Mar 16
Full
Mar 23
Last Quarter

Hourly Weather History & Observations

Time (CST) Temp. Windchill Dew Point Humidity Pressure Visibility Wind Dir Wind Speed Gust Speed Precip Events Conditions
12:15 AM 48.6 °F - 21.9 °F 35% 30.02 in 10.0 mi SSE 10.4 mph - N/A   Clear
12:35 AM 48.6 °F - 22.5 °F 36% 30.02 in 10.0 mi SSE 8.1 mph - N/A   Clear
12:55 AM 48.6 °F - 23.5 °F 37% 30.02 in 10.0 mi SSE 8.1 mph - N/A   Clear
1:15 AM 51.1 °F - 27.7 °F 40% 30.02 in 10.0 mi SSE 8.1 mph - N/A   Clear
1:35 AM 48.6 °F - 31.3 °F 51% 30.01 in 10.0 mi SSE 8.1 mph - N/A   Clear
1:55 AM 48.6 °F - 34.0 °F 57% 30.01 in 10.0 mi South 6.9 mph - N/A   Clear
2:15 AM 48.6 °F - 35.1 °F 60% 30.02 in 10.0 mi South 3.5 mph - N/A   Clear
2:35 AM 46.9 °F - 36.1 °F 66% 29.99 in 10.0 mi SSE 5.8 mph - N/A   Clear
3:00 AM 46.6 °F - 36.9 °F 69% 30.00 in 10.0 mi SE 4.6 mph - N/A   Clear
3:15 AM 47.7 °F - 37.4 °F 68% 29.99 in 10.0 mi SE 3.5 mph - N/A   Clear
3:35 AM 47.3 °F - 38.3 °F 71% 29.99 in 10.0 mi SSE 5.8 mph - N/A   Clear
3:55 AM 48.6 °F - 40.5 °F 74% 29.98 in 10.0 mi South 8.1 mph - N/A   Clear
4:15 AM 48.6 °F - 40.8 °F 75% 29.98 in 10.0 mi SE 4.6 mph - N/A   Clear
4:35 AM 45.7 °F 42.0 °F 39.4 °F 79% 29.98 in 10.0 mi SE 6.9 mph - N/A   Clear
4:55 AM 45.7 °F 42.7 °F 39.4 °F 79% 29.98 in 10.0 mi SE 5.8 mph - N/A   Clear
5:15 AM 47.3 °F - 40.6 °F 78% 29.99 in 10.0 mi Calm Calm - N/A   Clear
5:35 AM 47.3 °F - 41.0 °F 79% 29.99 in 10.0 mi SSE 3.5 mph - N/A   Clear
5:55 AM 46.2 °F 44.1 °F 40.6 °F 81% 29.99 in 10.0 mi SE 4.6 mph - N/A   Clear
6:15 AM 45.9 °F 43.6 °F 40.8 °F 83% 29.99 in 10.0 mi SE 4.6 mph - N/A   Clear
6:35 AM 46.0 °F 43.9 °F 40.8 °F 82% 30.00 in 10.0 mi SE 4.6 mph - N/A   Clear
6:55 AM 46.0 °F 44.8 °F 41.0 °F 83% 30.00 in 10.0 mi SE 3.5 mph - N/A   Scattered Clouds
7:15 AM 46.0 °F 43.9 °F 41.5 °F 84% 30.00 in 10.0 mi SE 4.6 mph - N/A   Mostly Cloudy
7:40 AM 48.6 °F - 43.7 °F 83% 30.00 in 10.0 mi Calm Calm - N/A   Overcast
7:55 AM 48.6 °F - 43.9 °F 84% 30.00 in 10.0 mi SE 3.5 mph - N/A   Overcast
8:15 AM 51.1 °F - 46.2 °F 83% 30.01 in 10.0 mi SSE 4.6 mph - N/A   Overcast
8:35 AM 51.1 °F - 45.5 °F 81% 30.01 in 10.0 mi SSE 4.6 mph - N/A   Overcast
8:55 AM 52.3 °F - 46.6 °F 81% 30.02 in 10.0 mi South 8.1 mph - N/A   Scattered Clouds
9:15 AM 53.6 °F - 48.0 °F 81% 30.02 in 10.0 mi South 11.5 mph - N/A   Clear
9:35 AM 55.9 °F - 50.0 °F 80% 30.03 in 10.0 mi SSE 12.7 mph - N/A   Clear
9:55 AM 56.3 °F - 50.2 °F 80% 30.03 in 10.0 mi SSE 10.4 mph - N/A   Clear
10:15 AM 56.3 °F - 49.3 °F 77% 30.03 in 10.0 mi South 8.1 mph - N/A   Clear
10:35 AM 58.6 °F - 50.9 °F 75% 30.03 in 10.0 mi South 11.5 mph - N/A   Clear
10:55 AM 60.4 °F - 51.1 °F 71% 30.02 in 10.0 mi SSW 11.5 mph - N/A   Clear
11:15 AM 61.9 °F - 51.8 °F 69% 30.01 in 10.0 mi South 15.0 mph - N/A   Clear
11:35 AM 62.4 °F - 51.8 °F 68% 30.01 in 10.0 mi South 13.8 mph - N/A   Clear
11:55 AM 63.5 °F - 52.5 °F 67% 30.01 in 10.0 mi South 10.4 mph - N/A   Clear
12:15 PM 61.2 °F - 51.3 °F 70% 29.99 in 10.0 mi South 11.5 mph 17.3 mph N/A   Clear
12:35 PM 63.7 °F - 51.6 °F 65% 29.98 in 10.0 mi South 15.0 mph 21.9 mph N/A   Clear
12:55 PM 64.8 °F - 51.3 °F 62% 29.98 in 10.0 mi South 15.0 mph - N/A   Clear
1:15 PM 65.8 °F - 51.6 °F 60% 29.96 in 10.0 mi South 15.0 mph 18.4 mph N/A   Clear
1:35 PM 68.9 °F - 52.3 °F 55% 29.95 in 10.0 mi South 16.1 mph - N/A   Clear
1:55 PM 68.9 °F - 52.7 °F 56% 29.93 in 10.0 mi SSE 13.8 mph 20.7 mph N/A   Clear
2:15 PM 70.3 °F - 53.6 °F 55% 29.92 in 10.0 mi South 11.5 mph 17.3 mph N/A   Clear
2:35 PM 71.6 °F - 53.1 °F 52% 29.91 in 10.0 mi South 12.7 mph 18.4 mph N/A   Clear
2:55 PM 72.7 °F - 51.4 °F 47% 29.90 in 10.0 mi South 12.7 mph - N/A   Clear
3:15 PM 72.1 °F - 51.8 °F 49% 29.90 in 10.0 mi South 13.8 mph 19.6 mph N/A   Clear
3:35 PM 72.9 °F - 51.4 °F 47% 29.89 in 10.0 mi SSE 13.8 mph 17.3 mph N/A   Clear
3:55 PM 71.6 °F - 52.2 °F 50% 29.89 in 10.0 mi South 11.5 mph - N/A   Clear
4:15 PM 72.3 °F - 52.7 °F 50% 29.89 in 10.0 mi South 12.7 mph 17.3 mph N/A   Clear
4:35 PM 71.6 °F - 53.1 °F 52% 29.88 in 10.0 mi South 16.1 mph - N/A   Clear
4:55 PM 71.6 °F - 54.0 °F 54% 29.88 in 10.0 mi South 12.7 mph - N/A   Clear
5:15 PM 71.6 °F - 55.0 °F 56% 29.88 in 10.0 mi SSW 12.7 mph - N/A   Clear
5:35 PM 68.9 °F - 54.9 °F 61% 29.88 in 10.0 mi South 11.5 mph 16.1 mph N/A   Clear
5:55 PM 68.4 °F - 55.4 °F 63% 29.88 in 10.0 mi South 12.7 mph - N/A   Clear
6:15 PM 65.1 °F - 55.0 °F 70% 29.88 in 10.0 mi SSE 16.1 mph - N/A   Clear
6:35 PM 63.7 °F - 55.4 °F 74% 29.89 in 10.0 mi SSE 10.4 mph - N/A   Clear
6:55 PM 62.6 °F - 55.4 °F 77% 29.90 in 10.0 mi SSE 10.4 mph - N/A   Clear
7:15 PM 62.6 °F - 55.2 °F 77% 29.91 in 10.0 mi SSE 8.1 mph - N/A   Mostly Cloudy
7:35 PM 62.6 °F - 55.4 °F 77% 29.91 in 10.0 mi SSE 6.9 mph - N/A   Mostly Cloudy
7:55 PM 62.8 °F - 55.6 °F 77% 29.91 in 10.0 mi SSE 10.4 mph - N/A   Mostly Cloudy
8:15 PM 62.6 °F - 55.6 °F 78% 29.92 in 10.0 mi SSE 8.1 mph - N/A   Mostly Cloudy
8:35 PM 62.6 °F - 55.8 °F 78% 29.92 in 10.0 mi SSE 10.4 mph - N/A   Mostly Cloudy
8:55 PM 62.6 °F - 56.3 °F 80% 29.93 in 10.0 mi SSE 9.2 mph - N/A   Mostly Cloudy
9:15 PM 62.6 °F - 56.5 °F 80% 29.93 in 10.0 mi SSE 9.2 mph - N/A   Mostly Cloudy
9:35 PM 62.1 °F - 56.5 °F 82% 29.94 in 10.0 mi SSE 8.1 mph - N/A   Overcast
9:55 PM 61.9 °F - 56.7 °F 83% 29.94 in 10.0 mi South 8.1 mph - N/A   Mostly Cloudy
10:15 PM 61.9 °F - 56.7 °F 83% 29.95 in 10.0 mi South 6.9 mph - N/A   Mostly Cloudy
10:35 PM 61.9 °F - 56.8 °F 84% 29.95 in 10.0 mi South 6.9 mph - N/A   Mostly Cloudy
10:55 PM 61.9 °F - 57.2 °F 85% 29.95 in 10.0 mi South 8.1 mph - N/A   Mostly Cloudy
11:15 PM 61.9 °F - 57.4 °F 85% 29.95 in 10.0 mi South 8.1 mph - N/A   Overcast
11:35 PM 61.9 °F - 57.7 °F 86% 29.95 in 10.0 mi South 6.9 mph - N/A   Overcast
11:55 PM 61.7 °F - 57.6 °F 86% 29.94 in 10.0 mi South 8.1 mph - N/A   Overcast